createdAt,value
2019-05-17T17:04:33.764Z,3.47
2019-05-17T17:07:02.731Z,2.50
2019-05-17T17:09:31.898Z,3.43
2019-05-17T17:12:00.891Z,3.10
2019-05-17T17:14:29.876Z,2.73
2019-05-17T17:16:59.404Z,2.73
2019-05-17T17:19:28.354Z,3.10
2019-05-17T17:21:57.325Z,2.57
2019-05-17T17:24:26.423Z,2.70
2019-05-17T17:26:55.287Z,2.60
2019-05-17T17:29:24.180Z,3.50
2019-05-17T17:31:54.491Z,3.00
2019-05-17T17:34:24.599Z,3.40
2019-05-17T17:36:53.757Z,3.93
2019-05-17T17:39:22.920Z,3.40
2019-05-17T17:41:52.527Z,3.10
2019-05-17T17:44:21.649Z,3.20
2019-05-17T17:46:51.017Z,3.37
2019-05-17T17:49:20.756Z,2.53
2019-05-17T17:51:49.826Z,3.37
2019-05-17T17:54:18.630Z,3.30
2019-05-17T17:56:47.542Z,3.70
2019-05-17T17:59:16.654Z,3.17
2019-05-17T18:01:45.637Z,3.33
2019-05-17T18:04:14.548Z,3.63
2019-05-17T18:06:43.871Z,3.60
2019-05-17T18:09:13.616Z,2.80
2019-05-17T18:11:42.842Z,6.43
2019-05-17T18:14:13.736Z,5.33
2019-05-17T18:16:42.725Z,4.47
2019-05-17T18:19:11.628Z,3.60
2019-05-17T18:21:40.460Z,8.60
2019-05-17T18:24:10.488Z,6.83
2019-05-17T18:26:39.377Z,3.30
2019-05-17T18:29:08.939Z,3.70
2019-05-17T18:31:37.872Z,3.00
2019-05-17T18:34:06.829Z,3.10
2019-05-17T18:36:38.359Z,3.10
2019-05-17T18:39:07.689Z,3.20
2019-05-17T18:41:36.608Z,3.47
2019-05-17T18:44:05.607Z,3.33
2019-05-17T18:46:34.849Z,2.97
2019-05-17T18:49:03.768Z,3.20
2019-05-17T18:51:32.859Z,3.23
2019-05-17T18:54:02.505Z,4.03
2019-05-17T18:56:31.443Z,3.03
2019-05-17T18:59:00.384Z,3.40
2019-05-17T19:01:29.271Z,3.30
2019-05-17T19:03:58.114Z,3.00
2019-05-17T19:06:26.899Z,3.00
2019-05-17T19:08:56.081Z,3.03
2019-05-17T19:11:25.279Z,2.73
2019-05-17T19:13:54.477Z,3.97
2019-05-17T19:16:23.831Z,3.67
2019-05-17T19:18:52.718Z,3.20
2019-05-17T19:21:21.570Z,3.43
2019-05-17T19:23:50.769Z,3.40
2019-05-17T19:26:19.570Z,3.37
2019-05-17T19:28:48.450Z,3.17
2019-05-17T19:31:17.662Z,4.10
2019-05-17T19:33:46.436Z,3.50
2019-05-17T19:36:15.390Z,3.50
2019-05-17T19:38:44.726Z,3.40
2019-05-17T19:41:13.864Z,3.20
2019-05-17T19:43:43.128Z,4.10
2019-05-17T19:46:12.072Z,3.13
2019-05-17T19:48:41.235Z,3.50
2019-05-17T19:51:10.099Z,3.80
2019-05-17T19:53:39.240Z,3.43
2019-05-17T19:56:08.046Z,5.70
2019-05-17T19:58:37.283Z,6.80
2019-05-17T20:01:06.436Z,5.60
2019-05-17T20:03:35.272Z,4.37
2019-05-17T20:06:04.259Z,3.80
2019-05-17T20:08:34.708Z,3.43
2019-05-17T20:11:03.496Z,3.40
2019-05-17T20:13:32.667Z,5.20
2019-05-17T20:16:01.517Z,5.97
2019-05-17T20:18:30.326Z,6.50
2019-05-17T20:20:59.438Z,4.27
2019-05-17T20:23:28.219Z,3.77
2019-05-17T20:25:57.134Z,4.10
2019-05-17T20:28:26.004Z,4.50
2019-05-17T20:30:54.874Z,4.37
2019-05-17T20:33:23.746Z,4.93
2019-05-17T20:35:52.528Z,5.00
2019-05-17T20:38:21.754Z,3.97
2019-05-17T20:40:51.015Z,3.80
2019-05-17T20:43:20.105Z,4.40
2019-05-17T20:45:49.324Z,4.53
2019-05-17T20:48:18.247Z,5.47
2019-05-17T20:50:47.192Z,3.60
2019-05-17T20:53:18.791Z,4.17
2019-05-17T20:55:47.220Z,4.73
2019-05-17T20:58:16.291Z,4.17
2019-05-17T21:00:45.390Z,3.53
2019-05-17T21:03:14.282Z,3.70
2019-05-17T21:05:43.138Z,4.53
2019-05-17T21:08:11.977Z,4.90
2019-05-17T21:10:41.053Z,3.67
2019-05-17T21:13:09.877Z,4.30
2019-05-17T21:15:47.413Z,4.03
2019-05-17T21:18:10.234Z,4.10
2019-05-17T21:20:39.369Z,5.87
2019-05-17T21:23:09.220Z,7.27
2019-05-17T21:25:38.441Z,6.97
2019-05-17T21:28:07.308Z,5.60
2019-05-17T21:30:36.368Z,4.33
2019-05-17T21:33:05.241Z,4.20
2019-05-17T21:35:34.085Z,4.20
2019-05-17T21:38:02.887Z,4.10
2019-05-17T21:40:31.746Z,4.60
2019-05-17T21:43:01.271Z,3.77
2019-05-17T21:45:30.226Z,4.50
2019-05-17T21:47:59.423Z,4.40
2019-05-17T21:50:28.221Z,4.47
2019-05-17T21:52:57.544Z,4.97
2019-05-17T21:55:26.369Z,4.60
2019-05-17T21:57:55.217Z,4.60
2019-05-17T22:00:54.449Z,6.17
2019-05-17T22:03:23.596Z,4.27
2019-05-17T22:05:52.815Z,4.20
2019-05-17T22:08:21.694Z,4.53
2019-05-17T22:10:50.594Z,5.20
2019-05-17T22:13:19.391Z,4.20
2019-05-17T22:15:48.778Z,4.47
2019-05-17T22:18:18.755Z,4.27
2019-05-17T22:20:48.056Z,4.40
2019-05-17T22:23:17.273Z,4.20
2019-05-17T22:25:46.427Z,4.40
2019-05-17T22:28:15.219Z,4.50
2019-05-17T22:30:44.670Z,4.77
2019-05-17T22:33:13.467Z,5.00
2019-05-17T22:35:42.849Z,5.20
2019-05-17T22:38:11.663Z,4.83
2019-05-17T22:40:40.437Z,5.00
2019-05-17T22:43:09.232Z,7.10
2019-05-17T22:45:38.317Z,5.77
2019-05-17T22:48:07.186Z,3.70
2019-05-17T22:50:35.993Z,4.50
2019-05-17T22:53:05.498Z,4.10
2019-05-17T22:55:34.393Z,4.47
2019-05-17T22:58:03.274Z,4.70
2019-05-17T23:00:32.238Z,4.80
2019-05-17T23:03:01.057Z,4.37
2019-05-17T23:05:29.937Z,4.47
2019-05-17T23:07:58.904Z,4.50
2019-05-17T23:10:27.767Z,4.90
2019-05-17T23:12:56.915Z,4.73
2019-05-17T23:15:29.104Z,4.43
2019-05-17T23:17:58.192Z,4.60
2019-05-17T23:20:26.979Z,4.73
2019-05-17T23:22:55.787Z,4.50
2019-05-17T23:25:24.562Z,5.00
2019-05-17T23:27:53.357Z,5.00
2019-05-17T23:30:22.317Z,4.70
2019-05-17T23:32:51.101Z,4.23
2019-05-17T23:35:39.117Z,4.93
2019-05-17T23:38:27.226Z,4.43
2019-05-17T23:41:15.265Z,4.70
2019-05-17T23:43:44.062Z,4.70
2019-05-17T23:46:13.151Z,6.07
2019-05-17T23:48:42.065Z,5.00
2019-05-17T23:51:11.048Z,4.53
2019-05-17T23:53:59.286Z,4.97
2019-05-17T23:56:28.261Z,4.70
2019-05-17T23:59:33.866Z,4.90
